Time;durP1;ratioP1;P1;durP2;ratioP2;P2;SDS_P1;SDS_P2;PMS_P1;PMS_P2;Temp;Humidity;BMP_temperature;BMP_pressure;BME280_temperature;BME280_humidity;BME280_pressure;Samples;Min_cycle;Max_cycle;Signal;HPM_P1;HPM_P2
2022/06/05 00:00:31;;;;;;;22.53;20.43;;;18.30;99.90;;;;;;4992181;28;20176;-68
2022/06/05 00:03:17;;;;;;;21.17;19.10;;;18.30;99.90;;;;;;4993721;28;20551;-68
2022/06/05 00:06:01;;;;;;;20.13;18.23;;;18.30;99.90;;;;;;4993823;28;20183;-68
2022/06/05 00:08:54;;;;;;;20.23;18.13;;;18.20;99.90;;;;;;4993760;28;20186;-68
2022/06/05 00:11:22;;;;;;;21.00;18.90;;;18.30;99.90;;;;;;4997819;28;20222;-69
2022/06/05 00:13:52;;;;;;;30.57;26.70;;;18.30;99.90;;;;;;4997203;28;20696;-68
2022/06/05 00:16:22;;;;;;;19.10;17.38;;;18.30;99.90;;;;;;4997531;28;20180;-68
2022/06/05 00:18:48;;;;;;;21.60;19.10;;;18.30;99.90;;;;;;4997345;28;20202;-68
2022/06/05 00:21:14;;;;;;;19.73;17.80;;;18.40;99.90;;;;;;4997252;28;20231;-68
2022/06/05 00:23:40;;;;;;;19.13;17.33;;;18.40;99.90;;;;;;4997593;28;20270;-67
2022/06/05 00:26:26;;;;;;;18.73;17.03;;;18.30;99.90;;;;;;4997338;28;20207;-69
2022/06/05 00:28:57;;;;;;;18.87;17.03;;;18.40;99.90;;;;;;4997120;28;20249;-68
2022/06/05 00:31:31;;;;;;;19.60;17.57;;;18.40;99.90;;;;;;4997459;28;20179;-69
2022/06/05 00:33:57;;;;;;;19.53;17.73;;;18.40;99.90;;;;;;4997587;28;20185;-68
2022/06/05 00:36:47;;;;;;;17.80;16.20;;;18.40;99.90;;;;;;4997124;28;20186;-68
2022/06/05 00:39:23;;;;;;;18.50;16.83;;;18.40;99.90;;;;;;4997375;28;20274;-68
2022/06/05 00:41:58;;;;;;;17.63;16.05;;;18.40;99.90;;;;;;4997343;28;20171;-67
2022/06/05 00:44:32;;;;;;;20.23;18.30;;;18.50;99.90;;;;;;4996918;28;20171;-67
2022/06/05 00:46:59;;;;;;;19.20;17.50;;;18.50;99.90;;;;;;4997084;28;20245;-68
2022/06/05 00:49:36;;;;;;;18.13;16.53;;;18.50;99.90;;;;;;4995697;28;20207;-67
2022/06/05 00:52:07;;;;;;;19.65;17.90;;;18.40;99.90;;;;;;4996881;28;20186;-67
2022/06/05 00:54:33;;;;;;;19.55;17.65;;;18.40;99.90;;;;;;4997123;28;20179;-69
2022/06/05 00:56:58;;;;;;;19.87;17.97;;;18.40;99.90;;;;;;4996597;28;20175;-68
2022/06/05 00:59:24;;;;;;;19.57;17.60;;;18.30;99.90;;;;;;4996796;28;20179;-68
2022/06/05 01:01:51;;;;;;;19.65;17.67;;;18.20;99.90;;;;;;4995465;28;20171;-68
2022/06/05 01:04:18;;;;;;;19.67;17.80;;;18.10;99.90;;;;;;4997003;28;20171;-68
2022/06/05 01:06:43;;;;;;;20.97;19.07;;;18.20;99.90;;;;;;4996633;28;20637;-68
2022/06/05 01:09:09;;;;;;;19.70;18.00;;;18.20;99.90;;;;;;4995438;28;20207;-68
2022/06/05 01:11:42;;;;;;;21.23;18.87;;;18.10;99.90;;;;;;4996429;28;20179;-67
2022/06/05 01:14:11;;;;;;;20.15;18.30;;;18.10;99.90;;;;;;4996548;28;20202;-68
2022/06/05 01:16:59;;;;;;;19.83;18.13;;;18.10;99.90;;;;;;4996457;28;20653;-68
2022/06/05 01:19:55;;;;;;;19.13;17.33;;;18.10;99.90;;;;;;4996623;28;20168;-68
2022/06/05 01:22:39;;;;;;;18.37;16.83;;;18.10;99.90;;;;;;4996689;28;20234;-68
2022/06/05 01:25:30;;;;;;;20.33;18.20;;;18.10;99.90;;;;;;4995066;28;20171;-68
2022/06/05 01:28:00;;;;;;;19.80;17.80;;;18.00;99.90;;;;;;4996051;28;20178;-68
2022/06/05 01:30:28;;;;;;;18.33;16.63;;;17.90;99.90;;;;;;4996287;28;20222;-68
2022/06/05 01:32:59;;;;;;;18.97;17.17;;;17.90;99.90;;;;;;4996172;28;20175;-69
2022/06/05 01:35:29;;;;;;;18.97;17.20;;;17.80;99.90;;;;;;4996361;28;20171;-68
2022/06/05 01:38:00;;;;;;;19.73;17.73;;;17.80;99.90;;;;;;4996133;28;20180;-69
2022/06/05 01:40:32;;;;;;;20.20;18.13;;;17.70;99.90;;;;;;4996017;28;20164;-67
2022/06/05 01:43:12;;;;;;;21.33;19.20;;;17.80;99.90;;;;;;4996113;28;20172;-68
2022/06/05 01:46:01;;;;;;;20.03;18.20;;;17.70;99.90;;;;;;4996028;28;20189;-68
2022/06/05 01:48:36;;;;;;;21.03;19.13;;;17.70;99.90;;;;;;4995650;28;20192;-69
2022/06/05 01:51:06;;;;;;;21.33;19.43;;;17.70;99.90;;;;;;4995952;28;20634;-68
2022/06/05 01:53:41;;;;;;;20.70;18.57;;;17.60;99.90;;;;;;4995972;28;20199;-68
2022/06/05 01:56:18;;;;;;;21.17;19.23;;;17.60;99.90;;;;;;4995512;28;20225;-68
2022/06/05 01:58:49;;;;;;;21.40;19.40;;;17.60;99.90;;;;;;4995641;28;20197;-68
2022/06/05 02:01:23;;;;;;;21.30;19.43;;;17.60;99.90;;;;;;4995891;28;20175;-68
2022/06/05 02:04:01;;;;;;;20.73;18.83;;;17.50;99.90;;;;;;4995794;28;20179;-67
2022/06/05 02:06:32;;;;;;;21.70;19.73;;;17.50;99.90;;;;;;4995548;28;20263;-68
2022/06/05 02:09:05;;;;;;;21.17;19.27;;;17.50;99.90;;;;;;4995440;28;20207;-68
2022/06/05 02:11:32;;;;;;;21.97;19.97;;;17.50;99.90;;;;;;4995200;28;20246;-68
2022/06/05 02:14:05;;;;;;;22.63;20.47;;;17.50;99.90;;;;;;4994168;28;20334;-68
2022/06/05 02:16:32;;;;;;;22.17;20.03;;;17.50;99.90;;;;;;4995508;28;20172;-67
2022/06/05 02:19:01;;;;;;;21.37;19.50;;;17.40;99.90;;;;;;4995306;28;20647;-67
2022/06/05 02:21:27;;;;;;;21.30;19.27;;;17.40;99.90;;;;;;4994929;28;20223;-68
2022/06/05 02:23:53;;;;;;;21.47;19.50;;;17.40;99.90;;;;;;4994841;28;20186;-68
2022/06/05 02:26:19;;;;;;;21.20;19.40;;;17.40;99.90;;;;;;4995126;28;20171;-68
2022/06/05 02:28:44;;;;;;;23.23;20.73;;;17.40;99.90;;;;;;4995265;28;20198;-67
2022/06/05 02:31:10;;;;;;;23.00;20.90;;;17.40;99.90;;;;;;4994773;28;20189;-68
2022/06/05 02:33:36;;;;;;;22.17;19.97;;;17.40;99.90;;;;;;4994640;28;20171;-68
2022/06/05 02:36:26;;;;;;;22.50;20.43;;;17.40;99.90;;;;;;4993581;28;20175;-68
2022/06/05 02:39:10;;;;;;;21.77;19.90;;;17.40;99.90;;;;;;4994635;28;20665;-68
2022/06/05 02:41:57;;;;;;;22.83;20.70;;;17.40;99.90;;;;;;4995036;28;20183;-67
2022/06/05 02:44:54;;;;;;;22.57;20.27;;;17.30;99.90;;;;;;4994946;28;20179;-67
2022/06/05 02:47:37;;;;;;;23.33;21.13;;;17.30;99.90;;;;;;4993569;28;20651;-68
2022/06/05 02:50:06;;;;;;;23.97;21.67;;;17.40;99.90;;;;;;4994832;28;20207;-68
2022/06/05 02:52:32;;;;;;;23.50;21.20;;;17.30;99.90;;;;;;4994588;28;20250;-68
2022/06/05 02:55:10;;;;;;;24.33;21.77;;;17.30;99.90;;;;;;4994249;28;20632;-68
2022/06/05 02:57:36;;;;;;;23.43;21.07;;;17.30;99.90;;;;;;4994852;28;20186;-68
2022/06/05 03:00:05;;;;;;;23.47;21.27;;;17.30;99.90;;;;;;4994731;28;20182;-68
2022/06/05 03:05:16;;;;;;;24.90;22.60;;;17.20;99.90;;;;;;4994389;28;20178;-68
2022/06/05 03:07:42;;;;;;;23.80;21.50;;;17.20;99.90;;;;;;4994146;28;20167;-67
2022/06/05 03:10:08;;;;;;;23.57;21.37;;;17.20;99.90;;;;;;4994397;28;20211;-67
2022/06/05 03:12:34;;;;;;;24.30;21.80;;;17.20;99.90;;;;;;4994526;28;20203;-67
2022/06/05 03:15:01;;;;;;;25.33;22.67;;;17.10;99.90;;;;;;4994374;28;20770;-68
2022/06/05 03:17:29;;;;;;;24.33;22.07;;;17.10;99.90;;;;;;4994365;28;20179;-68
2022/06/05 03:19:55;;;;;;;24.67;22.33;;;17.20;99.90;;;;;;4994051;28;20665;-68
2022/06/05 03:22:20;;;;;;;26.03;23.43;;;17.20;99.90;;;;;;4992270;28;20258;-67
2022/06/05 03:24:46;;;;;;;24.00;21.73;;;17.20;99.90;;;;;;4994235;28;20217;-69
2022/06/05 03:27:11;;;;;;;24.23;21.83;;;17.30;99.90;;;;;;4994182;28;20274;-68
2022/06/05 03:29:37;;;;;;;23.80;21.50;;;17.30;99.90;;;;;;4994302;28;20258;-67
2022/06/05 03:32:03;;;;;;;22.50;20.33;;;17.30;99.90;;;;;;4994077;28;20167;-68
2022/06/05 03:34:29;;;;;;;21.87;19.77;;;17.20;99.90;;;;;;4994255;28;20246;-67
2022/06/05 03:36:54;;;;;;;23.47;21.17;;;17.20;99.90;;;;;;4993682;28;20175;-67
2022/06/05 03:39:20;;;;;;;23.53;21.40;;;17.20;99.90;;;;;;4993866;28;20577;-69
2022/06/05 03:41:46;;;;;;;23.60;21.43;;;17.20;99.90;;;;;;4994132;28;20570;-69
2022/06/05 03:44:13;;;;;;;23.83;21.50;;;17.20;99.90;;;;;;4993697;28;20205;-68
2022/06/05 03:46:39;;;;;;;23.00;20.90;;;17.20;99.90;;;;;;4993990;28;20171;-68
2022/06/05 03:49:06;;;;;;;24.50;22.10;;;17.20;99.90;;;;;;4993584;28;20203;-68
2022/06/05 03:51:33;;;;;;;23.67;21.43;;;17.30;99.90;;;;;;4993581;28;20179;-68
2022/06/05 03:53:58;;;;;;;24.33;21.93;;;17.30;99.90;;;;;;4993675;28;20638;-68
2022/06/05 03:56:26;;;;;;;23.07;20.87;;;17.40;99.90;;;;;;4993910;28;20176;-68
2022/06/05 03:58:52;;;;;;;22.27;20.27;;;17.40;99.90;;;;;;4993868;28;20249;-68
2022/06/05 04:01:20;;;;;;;21.97;19.97;;;17.40;99.90;;;;;;4993908;28;20206;-69
2022/06/05 04:03:46;;;;;;;22.17;19.80;;;17.40;99.90;;;;;;4993398;28;20241;-68
2022/06/05 04:06:14;;;;;;;22.00;19.90;;;17.40;99.90;;;;;;4991941;28;20183;-68
2022/06/05 04:08:40;;;;;;;22.40;20.20;;;17.40;99.90;;;;;;4993513;28;20175;-68
2022/06/05 04:11:13;;;;;;;22.27;20.07;;;17.30;99.90;;;;;;4993629;28;20190;-68
2022/06/05 04:13:39;;;;;;;23.57;21.23;;;17.40;99.90;;;;;;4993513;28;20650;-68
2022/06/05 04:16:17;;;;;;;23.00;20.70;;;17.40;99.90;;;;;;4993410;28;20271;-68
2022/06/05 04:18:43;;;;;;;21.00;19.03;;;17.40;99.90;;;;;;4993486;28;20237;-68
2022/06/05 04:21:11;;;;;;;22.43;20.23;;;17.30;99.90;;;;;;4993129;28;20183;-68
2022/06/05 04:23:37;;;;;;;22.60;20.13;;;17.30;99.90;;;;;;4993473;28;20187;-68
2022/06/05 04:26:07;;;;;;;21.50;19.50;;;17.20;99.90;;;;;;4993470;28;20186;-68
2022/06/05 04:28:33;;;;;;;22.70;20.60;;;17.20;99.90;;;;;;4993547;28;20175;-68
2022/06/05 04:30:58;;;;;;;22.80;20.60;;;17.20;99.90;;;;;;4992007;28;20191;-68
2022/06/05 04:33:24;;;;;;;24.60;20.50;;;17.30;99.90;;;;;;4993623;28;20254;-68
2022/06/05 04:35:49;;;;;;;21.77;19.67;;;17.40;99.90;;;;;;4993067;28;20171;-69
2022/06/05 04:38:15;;;;;;;22.13;19.57;;;17.40;99.90;;;;;;4993501;28;20218;-69
2022/06/05 04:40:41;;;;;;;20.27;18.17;;;17.40;99.90;;;;;;4993438;28;20631;-69
2022/06/05 04:43:08;;;;;;;21.17;19.10;;;17.40;99.90;;;;;;4992727;28;20560;-68
2022/06/05 04:45:34;;;;;;;21.60;19.43;;;17.40;99.90;;;;;;4993381;28;20183;-69
2022/06/05 04:47:59;;;;;;;21.43;19.43;;;17.40;99.90;;;;;;4993346;28;20202;-69
2022/06/05 04:50:25;;;;;;;20.20;18.30;;;17.40;99.90;;;;;;4992857;28;20278;-69
2022/06/05 04:52:50;;;;;;;21.20;19.20;;;17.40;99.90;;;;;;4993187;28;20172;-68
2022/06/05 04:55:16;;;;;;;19.90;18.07;;;17.50;99.90;;;;;;4993930;28;20580;-67
2022/06/05 04:57:43;;;;;;;19.13;17.30;;;17.50;99.90;;;;;;4995575;28;20172;-68
2022/06/05 05:00:10;;;;;;;20.67;18.73;;;17.50;99.90;;;;;;4996865;28;20198;-68
2022/06/05 05:02:35;;;;;;;19.97;18.07;;;17.60;99.90;;;;;;4996645;28;20670;-68
2022/06/05 05:05:01;;;;;;;20.90;18.77;;;17.60;99.90;;;;;;4996397;28;20214;-68
2022/06/05 05:07:27;;;;;;;19.30;17.40;;;17.60;99.90;;;;;;4996795;28;20175;-68
2022/06/05 05:09:53;;;;;;;19.40;17.50;;;17.70;99.90;;;;;;4996444;28;20547;-68
2022/06/05 05:12:18;;;;;;;19.10;17.40;;;17.70;99.90;;;;;;4996229;28;20208;-68
2022/06/05 05:14:45;;;;;;;19.97;17.90;;;17.90;99.90;;;;;;4996586;28;20199;-68
2022/06/05 05:17:10;;;;;;;19.37;17.47;;;17.90;99.90;;;;;;4996746;28;20179;-68
2022/06/05 05:19:36;;;;;;;19.27;17.47;;;17.80;99.90;;;;;;4995958;28;20266;-69
2022/06/05 05:22:02;;;;;;;18.97;17.10;;;17.90;99.90;;;;;;4995895;28;20250;-68
2022/06/05 05:24:28;;;;;;;19.60;17.80;;;17.90;99.90;;;;;;4996298;28;20183;-68
2022/06/05 05:26:53;;;;;;;19.27;17.53;;;17.90;99.90;;;;;;4996116;28;20167;-69
2022/06/05 05:29:19;;;;;;;19.23;17.37;;;17.90;99.90;;;;;;4994531;28;20222;-69
2022/06/05 05:31:45;;;;;;;18.92;17.15;;;18.00;99.90;;;;;;4996002;28;20182;-69
2022/06/05 05:34:13;;;;;;;18.47;16.83;;;18.10;99.90;;;;;;4995871;28;20203;-69
2022/06/05 05:36:40;;;;;;;18.50;17.00;;;18.10;99.90;;;;;;4995925;28;20563;-69
2022/06/05 05:42:07;;;;;;;18.73;16.73;;;18.40;99.90;;;;;;4996264;28;20186;-68
2022/06/05 05:44:52;;;;;;;18.83;16.90;;;18.40;99.90;;;;;;4994469;28;20179;-69
2022/06/05 05:47:23;;;;;;;17.80;16.08;;;18.70;99.90;;;;;;4995187;28;20276;-69
2022/06/05 05:49:53;;;;;;;18.85;17.15;;;19.00;99.90;;;;;;4995478;28;20214;-70
2022/06/05 05:52:19;;;;;;;17.92;16.40;;;18.90;99.90;;;;;;4995686;28;20242;-69
2022/06/05 05:54:44;;;;;;;17.67;16.05;;;18.90;99.90;;;;;;4995532;28;20661;-70
2022/06/05 05:57:10;;;;;;;18.05;16.30;;;18.90;99.90;;;;;;4995658;28;20641;-69
2022/06/05 05:59:36;;;;;;;18.42;16.63;;;19.10;99.90;;;;;;4995405;28;20246;-69
2022/06/05 06:02:03;;;;;;;17.38;15.52;;;19.20;99.90;;;;;;4994002;28;20610;-69
2022/06/05 06:04:29;;;;;;;16.67;15.18;;;19.30;98.90;;;;;;4995392;28;20206;-69
2022/06/05 06:06:54;;;;;;;16.77;15.30;;;19.40;96.30;;;;;;4994477;28;20171;-69
2022/06/05 06:09:20;;;;;;;17.27;15.45;;;19.50;90.50;;;;;;4995273;28;20211;-70
2022/06/05 06:11:46;;;;;;;17.70;16.02;;;19.60;90.20;;;;;;4995143;28;20254;-68
2022/06/05 06:14:12;;;;;;;16.33;14.93;;;19.90;91.40;;;;;;4993952;28;20211;-69
2022/06/05 06:16:37;;;;;;;14.98;13.57;;;20.40;72.00;;;;;;4995109;28;20256;-70
2022/06/05 06:19:04;;;;;;;16.17;14.80;;;20.90;45.90;;;;;;4995135;28;20681;-69
2022/06/05 06:21:30;;;;;;;15.52;14.05;;;21.20;26.20;;;;;;4994798;28;20167;-69
2022/06/05 06:23:55;;;;;;;15.05;13.85;;;21.60;14.10;;;;;;4995425;28;20325;-69
2022/06/05 06:26:21;;;;;;;15.48;14.25;;;21.80;1.00;;;;;;4995307;28;20254;-68
2022/06/05 06:28:47;;;;;;;15.13;13.60;;;21.90;1.00;;;;;;4994822;28;20226;-70
2022/06/05 06:31:14;;;;;;;14.43;13.23;;;22.20;1.00;;;;;;4994514;28;20187;-69
2022/06/05 06:33:40;;;;;;;14.30;12.95;;;22.30;1.00;;;;;;4995182;28;20202;-69
2022/06/05 06:36:13;;;;;;;13.98;12.77;;;23.20;1.00;;;;;;4994791;28;20253;-70
2022/06/05 06:38:40;;;;;;;14.45;12.95;;;23.40;1.00;;;;;;4994748;28;20167;-70
2022/06/05 06:41:14;;;;;;;14.00;12.68;;;23.10;1.00;;;;;;4994752;28;20179;-69
2022/06/05 06:43:41;;;;;;;12.88;11.93;;;23.80;1.00;;;;;;4994822;28;20178;-70
2022/06/05 06:46:07;;;;;;;13.45;12.35;;;24.40;1.00;;;;;;4994132;28;20237;-71
2022/06/05 06:48:34;;;;;;;12.98;11.82;;;25.20;99.90;;;;;;4994625;28;20184;-71
2022/06/05 06:51:00;;;;;;;12.50;11.60;;;25.80;1.00;;;;;;4994500;28;20238;-71
2022/06/05 06:53:27;;;;;;;12.18;11.27;;;26.90;1.00;;;;;;4994385;28;20222;-71
2022/06/05 06:55:53;;;;;;;11.40;10.30;;;28.00;1.00;;;;;;4994758;28;20234;-70
2022/06/05 06:58:19;;;;;;;12.32;10.98;;;29.00;1.00;;;;;;4994352;28;20631;-70
2022/06/05 07:00:45;;;;;;;11.00;10.20;;;28.30;99.90;;;;;;4994021;28;20214;-70
2022/06/05 07:03:11;;;;;;;12.18;11.00;;;28.00;1.00;;;;;;4994297;28;20202;-70
2022/06/05 07:05:38;;;;;;;12.45;11.40;;;27.60;99.90;;;;;;4994394;28;20167;-70
2022/06/05 07:08:04;;;;;;;11.55;10.73;;;27.30;1.00;;;;;;4994485;28;20182;-70
2022/06/05 07:10:30;;;;;;;13.38;12.18;;;26.70;1.00;;;;;;4994355;28;20214;-70
2022/06/05 07:12:56;;;;;;;12.80;11.70;;;26.50;99.90;;;;;;4993804;28;20258;-70
2022/06/05 07:15:22;;;;;;;12.93;11.93;;;26.20;1.00;;;;;;4993693;28;20286;-70
2022/06/05 07:17:48;;;;;;;13.80;12.80;;;25.90;1.00;;;;;;4993714;28;20182;-70
2022/06/05 07:20:14;;;;;;;13.95;12.75;;;25.70;1.00;;;;;;4994011;28;20266;-70
2022/06/05 07:22:40;;;;;;;14.93;13.02;;;25.40;76.70;;;;;;4993808;28;20219;-70
2022/06/05 07:25:06;;;;;;;14.73;13.43;;;25.40;99.90;;;;;;4993993;28;20614;-70
2022/06/05 07:27:32;;;;;;;13.98;12.77;;;25.40;90.00;;;;;;4994234;28;20170;-70
2022/06/05 07:29:57;;;;;;;13.70;12.70;;;25.20;99.90;;;;;;4991847;28;20207;-70
2022/06/05 07:32:24;;;;;;;14.18;13.02;;;25.50;46.40;;;;;;4993953;28;20201;-70
2022/06/05 07:34:50;;;;;;;14.38;13.25;;;25.50;1.00;;;;;;4994035;28;20206;-69
2022/06/05 07:37:16;;;;;;;14.52;13.30;;;25.00;99.90;;;;;;4993463;28;20174;-69
2022/06/05 07:39:42;;;;;;;15.55;14.13;;;25.10;1.00;;;;;;4993858;28;20518;-69
2022/06/05 07:42:09;;;;;;;15.00;13.68;;;25.20;1.00;;;;;;4993794;28;20184;-69
2022/06/05 07:44:36;;;;;;;15.40;13.82;;;25.10;1.00;;;;;;4993284;28;20179;-69
2022/06/05 07:47:09;;;;;;;15.20;13.93;;;25.00;1.00;;;;;;4993452;28;20179;-69
2022/06/05 07:49:39;;;;;;;15.57;13.98;;;25.20;1.00;;;;;;4993592;28;20210;-70
2022/06/05 07:54:49;;;;;;;14.45;12.93;;;25.40;99.90;;;;;;4993411;28;20639;-70
2022/06/05 07:57:20;;;;;;;14.23;12.90;;;25.50;99.90;;;;;;4993437;28;20253;-70
2022/06/05 07:59:47;;;;;;;13.98;12.85;;;25.60;99.90;;;;;;4993491;28;20175;-71
2022/06/05 08:02:19;;;;;;;13.57;12.38;;;25.90;1.00;;;;;;4993277;28;20174;-71
2022/06/05 08:04:45;;;;;;;14.88;13.68;;;26.40;1.00;;;;;;4991821;28;20179;-70
2022/06/05 08:07:13;;;;;;;14.27;13.13;;;27.00;31.30;;;;;;4993279;28;20179;-70
2022/06/05 08:09:40;;;;;;;13.40;12.30;;;27.30;99.90;;;;;;4993191;28;20225;-70
2022/06/05 08:12:08;;;;;;;14.68;13.48;;;27.50;99.90;;;;;;4992867;28;20322;-70
2022/06/05 08:14:35;;;;;;;14.70;13.60;;;27.60;1.00;;;;;;4993236;28;20687;-71
2022/06/05 08:17:06;;;;;;;14.90;13.70;;;27.50;1.00;;;;;;4993560;28;20237;-70
2022/06/05 08:19:32;;;;;;;16.00;14.48;;;27.30;1.00;;;;;;4993312;28;20174;-71
2022/06/05 08:21:57;;;;;;;15.85;14.32;;;26.90;1.00;;;;;;4993029;28;20218;-70
2022/06/05 08:24:23;;;;;;;14.70;13.57;;;26.70;99.90;;;;;;4992847;28;20179;-69
2022/06/05 08:26:49;;;;;;;15.13;13.95;;;26.20;1.00;;;;;;4993017;28;20175;-70
2022/06/05 08:29:15;;;;;;;16.05;14.75;;;25.90;1.00;;;;;;4991398;28;20299;-70
2022/06/05 08:31:41;;;;;;;17.30;15.57;;;25.40;1.00;;;;;;4996690;28;20610;-69
2022/06/05 08:34:07;;;;;;;15.77;14.55;;;25.00;99.90;;;;;;4996972;28;20179;-69
2022/06/05 08:36:33;;;;;;;16.55;15.07;;;24.60;1.00;;;;;;4996918;28;20542;-68
2022/06/05 08:42:06;;;;;;;18.15;16.42;;;24.30;1.00;;;;;;4997012;28;20666;-69
2022/06/05 08:45:01;;;;;;;17.33;15.73;;;23.70;1.00;;;;;;4996500;28;20175;-70
2022/06/05 08:47:30;;;;;;;19.15;17.27;;;23.30;1.00;;;;;;4974930;28;20192;-69
2022/06/05 08:50:06;;;;;;;18.98;17.15;;;23.10;1.00;;;;;;4975102;28;20749;-68
2022/06/05 08:52:36;;;;;;;19.80;18.10;;;22.90;1.00;;;;;;4975106;28;20180;-68
2022/06/05 08:55:31;;;;;;;19.27;17.38;;;22.50;1.00;;;;;;4974758;28;20184;-68
2022/06/05 08:58:12;;;;;;;19.92;17.95;;;22.40;1.00;;;;;;4974884;28;20294;-69
2022/06/05 09:00:41;;;;;;;20.60;18.60;;;22.30;1.00;;;;;;4975019;28;20385;-69
2022/06/05 09:03:42;;;;;;;21.48;19.58;;;22.20;1.00;;;;;;4974986;28;20180;-68
2022/06/05 09:06:31;;;;;;;21.17;19.38;;;22.00;1.00;;;;;;4974682;28;20222;-69
2022/06/05 09:08:58;;;;;;;22.10;20.10;;;21.90;1.00;;;;;;4974882;28;20172;-70
2022/06/05 09:11:59;;;;;;;22.85;20.60;;;21.70;1.00;;;;;;4974332;28;20211;-69
2022/06/05 09:15:02;;;;;;;22.92;20.83;;;21.40;1.00;;;;;;4962458;28;20199;-70
2022/06/05 09:17:28;;;;;;;22.17;20.00;;;21.40;3.20;;;;;;4974444;28;20183;-69
2022/06/05 09:19:57;;;;;;;22.30;20.30;;;21.40;10.90;;;;;;4974963;28;20202;-69
2022/06/05 09:22:38;;;;;;;24.17;21.98;;;21.50;11.90;;;;;;4973817;28;20765;-69
2022/06/05 09:25:40;;;;;;;24.48;22.17;;;21.50;10.40;;;;;;4996270;28;20175;-69
2022/06/05 09:28:28;;;;;;;24.60;22.40;;;21.40;7.50;;;;;;4996044;28;20221;-70
2022/06/05 09:31:21;;;;;;;25.10;22.55;;;21.40;16.80;;;;;;4995701;28;20210;-68
2022/06/05 09:33:51;;;;;;;25.27;22.58;;;21.40;23.50;;;;;;4995580;28;20171;-70
2022/06/05 09:36:20;;;;;;;25.63;23.00;;;21.20;22.50;;;;;;4995761;28;20167;-69
2022/06/05 09:38:51;;;;;;;25.10;22.80;;;21.30;26.40;;;;;;4995325;28;20187;-69
2022/06/05 09:41:41;;;;;;;25.40;23.10;;;21.20;23.10;;;;;;4994907;28;20183;-69
2022/06/05 09:44:18;;;;;;;26.05;23.65;;;21.20;27.80;;;;;;4995842;28;20175;-69
2022/06/05 09:47:26;;;;;;;26.85;24.25;;;21.40;32.50;;;;;;4995562;28;20171;-68
2022/06/05 09:49:59;;;;;;;27.05;24.52;;;21.20;29.20;;;;;;4984242;28;20218;-68
2022/06/05 09:52:31;;;;;;;27.40;24.70;;;21.10;38.50;;;;;;4995842;28;20175;-68
2022/06/05 09:55:15;;;;;;;27.98;25.33;;;21.10;44.30;;;;;;4995417;28;20168;-69
2022/06/05 10:00:49;;;;;;;29.45;26.45;;;21.10;43.50;;;;;;4995905;28;20174;-69
2022/06/05 10:03:25;;;;;;;29.67;26.58;;;21.00;55.80;;;;;;4995222;28;20172;-68
2022/06/05 10:06:21;;;;;;;30.70;27.58;;;21.00;57.80;;;;;;4995137;28;20182;-68
2022/06/05 10:08:54;;;;;;;28.58;25.88;;;20.80;69.00;;;;;;4994860;28;20230;-68
2022/06/05 10:11:38;;;;;;;27.42;24.83;;;20.20;64.40;;;;;;4995330;28;20623;-68
2022/06/05 10:14:44;;;;;;;27.20;24.58;;;19.60;85.10;;;;;;4995686;28;20197;-69
2022/06/05 10:17:31;;;;;;;31.48;28.30;;;19.20;99.90;;;;;;4977605;28;20235;-69
2022/06/05 10:20:22;;;;;;;32.22;29.05;;;19.20;99.90;;;;;;4994937;28;20172;-68
2022/06/05 10:23:00;;;;;;;35.95;32.17;;;19.40;99.90;;;;;;4992623;28;20281;-69
2022/06/05 10:25:42;;;;;;;38.97;34.88;;;19.60;99.90;;;;;;4994750;28;20179;-69
2022/06/05 10:28:18;;;;;;;41.13;36.85;;;19.60;99.90;;;;;;4995237;28;20167;-70
2022/06/05 10:31:04;;;;;;;39.03;34.92;;;19.70;99.90;;;;;;4994854;28;20655;-69
2022/06/05 10:33:53;;;;;;;38.90;34.60;;;19.90;99.90;;;;;;4993726;28;20186;-69
2022/06/05 10:36:33;;;;;;;41.00;36.70;;;19.90;99.90;;;;;;4994651;28;20224;-68
2022/06/05 10:39:23;;;;;;;41.00;36.90;;;19.90;99.90;;;;;;4993885;28;20178;-68
2022/06/05 10:42:13;;;;;;;45.80;38.47;;;19.90;99.90;;;;;;4994455;28;20183;-69
2022/06/05 10:45:22;;;;;;;41.25;36.85;;;20.00;99.90;;;;;;4994665;28;20195;-68
2022/06/05 10:48:05;;;;;;;41.53;37.10;;;20.00;99.90;;;;;;4991355;28;20211;-69
2022/06/05 10:50:49;;;;;;;44.35;38.42;;;19.90;99.90;;;;;;4994148;28;20265;-69
2022/06/05 10:53:34;;;;;;;43.22;38.65;;;19.80;99.90;;;;;;4993536;28;20230;-69
2022/06/05 10:56:30;;;;;;;44.15;39.45;;;19.80;99.90;;;;;;4993100;28;20190;-69
2022/06/05 10:59:10;;;;;;;47.35;42.25;;;19.80;99.90;;;;;;4994354;28;20183;-69
2022/06/05 11:01:41;;;;;;;50.53;42.55;;;19.70;99.90;;;;;;4994752;28;20182;-69
2022/06/05 11:04:27;;;;;;;52.30;42.78;;;19.60;99.90;;;;;;4993985;28;20244;-69
2022/06/05 11:07:16;;;;;;;45.22;40.42;;;19.70;99.90;;;;;;4993654;28;20217;-68
2022/06/05 11:10:16;;;;;;;45.70;40.70;;;19.70;99.90;;;;;;4993462;28;20203;-68
2022/06/05 11:16:06;;;;;;;44.58;39.42;;;19.60;99.90;;;;;;4994518;28;20715;-68
2022/06/05 11:18:59;;;;;;;46.60;39.28;;;19.40;99.90;;;;;;4993577;28;20207;-69
2022/06/05 11:21:27;;;;;;;44.45;40.00;;;19.40;99.90;;;;;;4993721;28;20175;-69
2022/06/05 11:23:57;;;;;;;44.33;39.72;;;19.50;99.90;;;;;;4993757;28;20217;-69
2022/06/05 11:26:35;;;;;;;44.28;39.80;;;19.50;99.90;;;;;;4994190;28;20185;-69
2022/06/05 11:29:18;;;;;;;43.75;39.08;;;19.50;99.90;;;;;;4993414;28;20194;-71
2022/06/05 11:31:47;;;;;;;43.75;38.72;;;19.50;99.90;;;;;;4992321;28;20171;-69
2022/06/05 11:34:46;;;;;;;46.15;41.10;;;19.40;99.90;;;;;;4993366;28;20163;-70
2022/06/05 11:37:26;;;;;;;46.60;40.60;;;19.30;99.90;;;;;;4992502;28;20673;-70
2022/06/05 11:40:04;;;;;;;45.38;40.72;;;19.40;99.90;;;;;;4993102;28;20657;-70
2022/06/05 11:42:37;;;;;;;46.42;41.63;;;19.40;99.90;;;;;;4993564;28;20179;-69
2022/06/05 11:45:33;;;;;;;49.08;42.42;;;19.20;99.90;;;;;;4993683;28;20182;-70
2022/06/05 11:48:08;;;;;;;46.90;42.13;;;19.40;99.90;;;;;;4993669;28;20239;-69
2022/06/05 11:50:56;;;;;;;47.22;42.35;;;19.40;99.90;;;;;;4991928;28;20238;-69
2022/06/05 11:53:55;;;;;;;48.35;43.20;;;19.40;99.90;;;;;;4992699;28;20261;-69
2022/06/05 11:56:36;;;;;;;42.30;37.85;;;19.50;99.90;;;;;;4971983;28;20188;-70
2022/06/05 11:59:39;;;;;;;44.15;39.42;;;19.40;99.90;;;;;;4971991;28;20187;-68
2022/06/05 12:02:24;;;;;;;40.58;36.50;;;19.50;99.90;;;;;;4971527;28;20230;-69
2022/06/05 12:05:10;;;;;;;40.97;36.70;;;19.60;99.90;;;;;;4973371;28;20172;-70
2022/06/05 12:07:36;;;;;;;39.90;35.60;;;19.50;99.90;;;;;;4975943;28;20171;-70
2022/06/05 12:10:14;;;;;;;38.28;34.38;;;19.50;99.90;;;;;;4975218;28;20568;-68
2022/06/05 12:12:53;;;;;;;39.37;35.37;;;19.50;99.90;;;;;;4975914;28;20176;-68
2022/06/05 12:15:33;;;;;;;38.17;34.38;;;19.50;99.90;;;;;;4975617;28;20203;-70
2022/06/05 12:18:07;;;;;;;38.08;34.30;;;19.60;99.90;;;;;;4975740;28;20183;-70
2022/06/05 12:21:07;;;;;;;38.65;34.95;;;19.70;99.90;;;;;;4975063;28;20311;-69
2022/06/05 12:23:37;;;;;;;43.45;38.95;;;19.80;99.90;;;;;;4975697;28;20366;-69
2022/06/05 12:26:33;;;;;;;38.65;34.78;;;19.90;99.90;;;;;;4975805;28;20172;-69
2022/06/05 12:29:08;;;;;;;38.85;34.92;;;19.90;99.90;;;;;;4975543;28;20266;-69
2022/06/05 12:31:40;;;;;;;38.60;34.83;;;19.90;99.90;;;;;;4983014;28;20269;-67
2022/06/05 12:34:15;;;;;;;39.63;35.60;;;20.00;99.90;;;;;;4996439;28;20279;-69
2022/06/05 12:36:58;;;;;;;37.17;33.55;;;20.10;99.90;;;;;;4997107;28;20170;-69
2022/06/05 12:39:37;;;;;;;35.13;31.70;;;20.20;99.90;;;;;;4996485;28;20178;-69
2022/06/05 12:42:39;;;;;;;35.35;31.80;;;20.30;99.90;;;;;;4996893;28;20171;-70
2022/06/05 12:45:39;;;;;;;35.28;31.98;;;20.40;99.90;;;;;;4996592;28;20660;-70
2022/06/05 12:48:21;;;;;;;34.83;31.35;;;20.30;99.90;;;;;;4995155;28;20211;-70
2022/06/05 12:51:12;;;;;;;32.22;29.13;;;20.40;99.90;;;;;;4995146;28;20207;-69
2022/06/05 12:54:01;;;;;;;32.10;28.85;;;20.70;99.90;;;;;;4996962;28;20231;-68
2022/06/05 12:56:50;;;;;;;30.45;27.55;;;21.00;99.90;;;;;;4996271;28;20172;-69
2022/06/05 12:59:35;;;;;;;27.00;24.40;;;21.30;99.90;;;;;;4996462;28;20167;-69
2022/06/05 13:02:06;;;;;;;27.25;24.65;;;21.20;99.90;;;;;;4996432;28;20258;-69
2022/06/05 13:04:47;;;;;;;27.65;24.98;;;21.40;99.90;;;;;;4995152;28;20237;-70
2022/06/05 13:07:31;;;;;;;27.38;24.63;;;21.60;99.90;;;;;;4996566;28;20261;-70
2022/06/05 13:10:14;;;;;;;25.77;23.23;;;21.60;98.20;;;;;;4995737;28;20249;-70
2022/06/05 13:12:44;;;;;;;26.92;24.42;;;21.40;97.20;;;;;;4996436;28;20199;-68
2022/06/05 13:15:24;;;;;;;26.55;23.90;;;21.10;99.90;;;;;;4996170;28;20222;-68
2022/06/05 13:18:16;;;;;;;27.10;24.33;;;21.00;99.90;;;;;;4995389;28;20179;-69